Avondale, Missouri
Current Conditions -  °F | °C
As of 4:27 AM on Saturday 25 Oct 2014 (Local Time) from KMKC Reporting Station
Haze Haze  
Wind Chill: 60°   Ceiling: Unl
Heat Index: 60°   Visibility: 2mi
Dew Point: 58°   Wind: 0mph
Humidity: 93%   Direction: NA
Pressure: 30"   Gusts: NA
Location:  39.1657°N, 94.5231°W
Report Text: KMKC 250927Z 00000KT 2SM BR CLR 16/14 A3000 RMK AO2 T01560144
Loading
Personal Weather Stations






























Interactive Weather Map
Tropical Storm Tracking
New forecast layout! Learn more

10-Day Weather Forecast

Advertisements
Track Severe Weather on mobile